createdAt,value
2023-04-09T00:00:16.634Z,99434.94
2023-04-09T00:02:43.513Z,99436.56
2023-04-09T00:05:10.608Z,99436.03
2023-04-09T00:07:37.384Z,99436.03
2023-04-09T00:10:04.640Z,99437.91
2023-04-09T00:12:31.491Z,99425.72
2023-04-09T00:14:58.400Z,99430.06
2023-04-09T00:17:25.305Z,99426.81
2023-04-09T00:19:52.095Z,99426.81
2023-04-09T00:22:18.972Z,99430.88
2023-04-09T00:24:46.087Z,99426.28
2023-04-09T00:27:12.908Z,99424.97
2023-04-09T00:29:39.823Z,99433.38
2023-04-09T00:32:07.339Z,99423.38
2023-04-09T00:34:34.740Z,99421.47
2023-04-09T00:37:01.868Z,99421.22
2023-04-09T00:39:28.791Z,99420.41
2023-04-09T00:42:02.796Z,99420.91
2023-04-09T00:44:29.780Z,99418.44
2023-04-09T00:46:59.972Z,99420.91
2023-04-09T00:49:27.383Z,99419.81
2023-04-09T00:51:54.721Z,99428.47
2023-04-09T00:54:21.877Z,99427.06
2023-04-09T00:56:48.740Z,99428.97
2023-04-09T00:59:16.015Z,99428.97
2023-04-09T01:01:43.081Z,99425.97
2023-04-09T01:04:11.632Z,99431.59
2023-04-09T01:06:45.435Z,99434.84
2023-04-09T01:09:24.566Z,99431.63
2023-04-09T01:12:21.228Z,99435.91
2023-04-09T01:15:08.872Z,99423.72
2023-04-09T01:17:59.188Z,99432.63
2023-04-09T01:20:37.738Z,99429.13
2023-04-09T01:23:10.727Z,99427.22
2023-04-09T01:26:16.469Z,99430.16
2023-04-09T01:28:47.394Z,99426.63
2023-04-09T01:31:18.928Z,99422.81
2023-04-09T01:33:46.956Z,99428.72
2023-04-09T01:36:15.916Z,99424.91
2023-04-09T01:38:46.567Z,99429.44
2023-04-09T01:41:19.325Z,99428.63
2023-04-09T01:43:47.625Z,99437.81
2023-04-09T01:46:17.566Z,99436.44
2023-04-09T01:48:46.407Z,99432.44
2023-04-09T01:51:14.210Z,99434.03
2023-04-09T01:53:42.075Z,99435.34
2023-04-09T01:56:09.848Z,99437.16
2023-04-09T01:58:36.787Z,99435.00
2023-04-09T02:01:38.478Z,99448.22
2023-04-09T02:04:14.373Z,99439.28
2023-04-09T02:07:18.087Z,99439.47
2023-04-09T02:09:47.642Z,99433.75
2023-04-09T02:12:18.506Z,99431.78
2023-04-09T02:14:52.232Z,99428.81
2023-04-09T02:17:19.760Z,99428.41
2023-04-09T02:19:48.224Z,99428.63
2023-04-09T02:22:17.303Z,99431.31
2023-04-09T02:24:46.126Z,99432.69
2023-04-09T02:27:12.900Z,99432.94
2023-04-09T02:29:42.156Z,99429.56
2023-04-09T02:32:08.996Z,99428.94
2023-04-09T02:34:36.172Z,99422.66
2023-04-09T02:37:03.214Z,99423.16
2023-04-09T02:39:30.265Z,99424.41
2023-04-09T02:41:57.803Z,99415.09
2023-04-09T02:44:24.685Z,99426.09
2023-04-09T02:46:53.662Z,99427.22
2023-04-09T02:49:20.445Z,99423.47
2023-04-09T02:51:47.512Z,99426.28
2023-04-09T02:54:14.386Z,99429.34
2023-04-09T02:56:41.207Z,99422.59
2023-04-09T02:59:08.233Z,99425.84
2023-04-09T03:01:35.196Z,99427.16
2023-04-09T03:04:02.773Z,99426.16
2023-04-09T03:06:29.764Z,99422.94
2023-04-09T03:08:56.557Z,99421.78
2023-04-09T03:11:23.312Z,99417.78
2023-04-09T03:13:50.160Z,99419.97
2023-04-09T03:16:16.979Z,99418.06
2023-04-09T03:18:43.757Z,99415.66
2023-04-09T03:21:12.823Z,99424.22
2023-04-09T03:23:41.540Z,99418.16
2023-04-09T03:26:08.321Z,99413.34
2023-04-09T03:28:35.520Z,99416.03
2023-04-09T03:31:02.525Z,99405.88
2023-04-09T03:33:29.302Z,99404.78
2023-04-09T03:35:56.183Z,99407.69
2023-04-09T03:38:23.807Z,99410.91
2023-04-09T03:40:50.813Z,99409.22
2023-04-09T03:43:17.668Z,99415.59
2023-04-09T03:45:44.472Z,99420.75
2023-04-09T03:48:11.226Z,99412.50
2023-04-09T03:50:40.825Z,99416.69
2023-04-09T03:53:08.007Z,99409.00
2023-04-09T03:55:35.087Z,99413.81
2023-04-09T03:58:01.953Z,99415.94
2023-04-09T04:00:28.802Z,99420.41
2023-04-09T04:02:55.873Z,99416.81
2023-04-09T04:05:25.387Z,99427.53
2023-04-09T04:07:52.404Z,99417.13
2023-04-09T04:10:19.626Z,99426.75
2023-04-09T04:12:46.532Z,99424.81
2023-04-09T04:15:13.455Z,99419.84
2023-04-09T04:17:40.310Z,99423.44
2023-04-09T04:20:08.096Z,99424.50
2023-04-09T04:22:35.617Z,99426.28
2023-04-09T04:25:04.392Z,99426.13
2023-04-09T04:27:31.613Z,99422.03
2023-04-09T04:30:00.182Z,99425.16
2023-04-09T04:32:27.309Z,99420.59
2023-04-09T04:34:54.420Z,99424.84
2023-04-09T04:37:21.659Z,99433.13
2023-04-09T04:39:48.824Z,99428.75
2023-04-09T04:42:16.795Z,99437.19
2023-04-09T04:44:44.942Z,99433.50
2023-04-09T04:47:11.790Z,99431.81
2023-04-09T04:49:38.617Z,99437.53
2023-04-09T04:52:06.700Z,99431.81
2023-04-09T04:54:34.449Z,99433.78
2023-04-09T04:57:01.555Z,99429.09
2023-04-09T04:59:28.867Z,99423.06
2023-04-09T05:01:55.863Z,99421.34
2023-04-09T05:04:22.945Z,99424.75
2023-04-09T05:06:49.843Z,99429.00
2023-04-09T05:09:16.961Z,99427.44
2023-04-09T05:11:43.796Z,99433.88
2023-04-09T05:14:10.857Z,99430.13
2023-04-09T05:16:37.782Z,99427.28
2023-04-09T05:19:04.798Z,99431.50
2023-04-09T05:21:32.092Z,99430.38
2023-04-09T05:23:59.063Z,99429.53
2023-04-09T05:26:26.800Z,99433.88
2023-04-09T05:28:54.061Z,99440.31
2023-04-09T05:31:21.207Z,99432.00
2023-04-09T05:33:48.092Z,99440.13
2023-04-09T05:36:19.745Z,99434.34
2023-04-09T05:38:47.620Z,99447.47
2023-04-09T05:41:15.310Z,99444.38
2023-04-09T05:43:42.999Z,99454.81
2023-04-09T05:46:10.004Z,99447.97
2023-04-09T05:48:37.439Z,99451.22
2023-04-09T05:51:04.396Z,99454.63
2023-04-09T05:53:32.068Z,99449.75
2023-04-09T05:55:58.972Z,99454.78
2023-04-09T05:58:25.878Z,99454.22
2023-04-09T06:00:52.805Z,99439.34
2023-04-09T06:03:20.649Z,99444.72
2023-04-09T06:05:50.740Z,99444.13
2023-04-09T06:08:17.566Z,99449.91
2023-04-09T06:10:44.331Z,99455.66
2023-04-09T06:13:11.194Z,99451.41
2023-04-09T06:15:39.378Z,99451.88
2023-04-09T06:18:06.846Z,99450.66
2023-04-09T06:20:33.955Z,99450.66
2023-04-09T06:23:00.838Z,99448.53
2023-04-09T06:25:27.736Z,99448.03
2023-04-09T06:27:54.545Z,99452.72
2023-04-09T06:30:21.914Z,99447.78
2023-04-09T06:32:54.444Z,99449.16
2023-04-09T06:35:22.730Z,99450.16
2023-04-09T06:37:49.651Z,99454.09
2023-04-09T06:40:21.361Z,99456.34
2023-04-09T06:42:49.668Z,99447.41
2023-04-09T06:45:16.460Z,99450.44
2023-04-09T06:47:43.476Z,99455.66
2023-04-09T06:50:10.722Z,99459.34
2023-04-09T06:52:37.830Z,99457.00
2023-04-09T06:55:08.684Z,99457.09
2023-04-09T06:57:35.869Z,99460.66
2023-04-09T07:00:03.456Z,99458.81
2023-04-09T07:02:31.093Z,99466.19
2023-04-09T07:04:58.024Z,99459.59
2023-04-09T07:07:25.827Z,99452.97
2023-04-09T07:09:53.666Z,99452.22
2023-04-09T07:12:37.609Z,99454.72
2023-04-09T07:15:08.737Z,99453.47
2023-04-09T07:17:36.183Z,99455.66
2023-04-09T07:20:04.983Z,99456.78
2023-04-09T07:22:32.376Z,99453.53
2023-04-09T07:24:59.442Z,99458.47
2023-04-09T07:27:28.613Z,99457.75
2023-04-09T07:29:59.819Z,99466.44
2023-04-09T07:32:28.235Z,99469.47
2023-04-09T07:34:55.773Z,99469.78
2023-04-09T07:37:23.286Z,99463.59
2023-04-09T07:39:51.330Z,99462.03
2023-04-09T07:42:18.282Z,99462.31
2023-04-09T07:44:45.124Z,99459.34
2023-04-09T07:47:13.434Z,99460.41
2023-04-09T07:49:40.779Z,99477.69
2023-04-09T07:52:09.039Z,99467.38
2023-04-09T07:54:36.532Z,99470.53
2023-04-09T07:57:03.873Z,99462.59
2023-04-09T07:59:31.829Z,99462.78
2023-04-09T08:01:59.462Z,99469.44
2023-04-09T08:04:28.140Z,99466.09
2023-04-09T08:06:55.330Z,99461.94
2023-04-09T08:09:22.862Z,99465.53
2023-04-09T08:11:50.375Z,99463.72
2023-04-09T08:14:18.511Z,99466.19
2023-04-09T08:16:47.687Z,99459.47
2023-04-09T08:19:17.835Z,99458.91
2023-04-09T08:21:44.772Z,99461.66
2023-04-09T08:24:12.182Z,99460.56
2023-04-09T08:26:41.339Z,99465.66
2023-04-09T08:29:10.674Z,99465.66
2023-04-09T08:31:37.797Z,99464.34
2023-04-09T08:34:06.090Z,99468.88
2023-04-09T08:36:34.933Z,99466.22
2023-04-09T08:39:03.420Z,99469.75
2023-04-09T08:41:30.801Z,99466.91
2023-04-09T08:44:00.019Z,99458.06
2023-04-09T08:46:27.930Z,99463.41
2023-04-09T08:48:56.076Z,99479.28
2023-04-09T08:51:24.934Z,99475.03
2023-04-09T08:54:03.965Z,99479.13
2023-04-09T08:56:32.142Z,99476.19
2023-04-09T08:58:59.357Z,99482.41
2023-04-09T09:01:31.764Z,99485.88
2023-04-09T09:04:08.191Z,99483.38
2023-04-09T09:06:41.287Z,99485.69
2023-04-09T09:09:16.721Z,99486.66
2023-04-09T09:11:46.994Z,99491.19
2023-04-09T09:14:19.887Z,99493.63
2023-04-09T09:16:56.113Z,99486.81
2023-04-09T09:19:26.251Z,99484.53
2023-04-09T09:21:57.463Z,99494.28
2023-04-09T09:24:24.337Z,99487.75
2023-04-09T09:26:52.469Z,99491.47
2023-04-09T09:29:20.023Z,99489.56
2023-04-09T09:31:52.570Z,99484.19
2023-04-09T09:34:21.849Z,99489.03
2023-04-09T09:36:49.490Z,99483.75
2023-04-09T09:39:17.858Z,99482.19
2023-04-09T09:41:47.599Z,99489.97
2023-04-09T09:44:33.023Z,99486.75
2023-04-09T09:47:03.994Z,99492.31
2023-04-09T09:49:31.009Z,99484.13
2023-04-09T09:52:03.096Z,99487.84
2023-04-09T09:54:40.499Z,99487.38
2023-04-09T09:57:10.958Z,99486.25
2023-04-09T09:59:46.519Z,99479.56
2023-04-09T10:02:23.312Z,99468.88
2023-04-09T10:04:52.837Z,99480.25
2023-04-09T10:07:27.009Z,99473.69
2023-04-09T10:09:58.647Z,99463.88
2023-04-09T10:12:27.161Z,99479.00
2023-04-09T10:14:56.473Z,99469.59
2023-04-09T10:17:23.310Z,99466.78
2023-04-09T10:20:11.109Z,99478.47
2023-04-09T10:22:39.081Z,99469.81
2023-04-09T10:25:06.947Z,99470.81
2023-04-09T10:27:33.892Z,99461.84
2023-04-09T10:30:01.811Z,99461.72
2023-04-09T10:32:36.777Z,99453.75
2023-04-09T10:35:04.701Z,99471.31
2023-04-09T10:37:31.833Z,99471.81
2023-04-09T10:39:58.868Z,99474.22
2023-04-09T10:42:42.140Z,99468.91
2023-04-09T10:45:14.900Z,99459.81
2023-04-09T10:47:47.155Z,99468.69
2023-04-09T10:50:36.486Z,99467.66
2023-04-09T10:53:04.864Z,99450.81
2023-04-09T10:55:40.828Z,99457.66
2023-04-09T10:58:13.305Z,99449.31
2023-04-09T11:00:44.399Z,99459.31
2023-04-09T11:03:27.401Z,99456.84
2023-04-09T11:06:07.165Z,99453.13
2023-04-09T11:08:35.395Z,99450.69
2023-04-09T11:11:03.594Z,99442.03
2023-04-09T11:13:32.547Z,99453.09
2023-04-09T11:16:01.239Z,99454.97
2023-04-09T11:18:30.659Z,99460.59
2023-04-09T11:21:00.798Z,99457.19
2023-04-09T11:23:28.485Z,99445.03
2023-04-09T11:25:56.615Z,99441.19
2023-04-09T11:28:32.601Z,99433.16
2023-04-09T11:30:59.759Z,99435.16
2023-04-09T11:33:36.850Z,99434.06
2023-04-09T11:36:06.885Z,99436.16
2023-04-09T11:38:34.039Z,99429.41
2023-04-09T11:41:02.210Z,99427.69
2023-04-09T11:43:29.249Z,99436.75
2023-04-09T11:45:57.644Z,99431.47
2023-04-09T11:48:25.095Z,99438.75
2023-04-09T11:50:52.796Z,99433.25
2023-04-09T11:53:22.064Z,99430.28
2023-04-09T11:55:54.727Z,99434.84
2023-04-09T11:58:26.615Z,99427.91
2023-04-09T12:01:03.383Z,99435.25
2023-04-09T12:03:33.288Z,99440.09
2023-04-09T12:06:04.020Z,99437.91
2023-04-09T12:08:31.784Z,99434.72
2023-04-09T12:11:12.834Z,99431.69
2023-04-09T12:13:44.418Z,99439.03
2023-04-09T12:16:13.200Z,99440.88
2023-04-09T12:18:40.755Z,99443.19
2023-04-09T12:21:10.714Z,99437.66
2023-04-09T12:23:37.609Z,99442.63
2023-04-09T12:26:04.900Z,99448.28
2023-04-09T12:28:31.960Z,99449.84
2023-04-09T12:30:59.668Z,99442.19
2023-04-09T12:33:27.258Z,99438.09
2023-04-09T12:35:54.158Z,99432.78
2023-04-09T12:38:21.313Z,99438.09
2023-04-09T12:40:48.208Z,99424.78
2023-04-09T12:43:15.654Z,99422.34
2023-04-09T12:45:42.486Z,99418.81
2023-04-09T12:48:09.519Z,99417.50
2023-04-09T12:50:36.558Z,99423.47
2023-04-09T12:53:03.368Z,99423.53
2023-04-09T12:55:30.284Z,99424.56
2023-04-09T12:57:57.467Z,99416.25
2023-04-09T13:00:24.686Z,99412.25
2023-04-09T13:02:52.934Z,99411.25
2023-04-09T13:05:19.943Z,99400.00
2023-04-09T13:07:46.723Z,99400.97
2023-04-09T13:10:13.734Z,99399.44
2023-04-09T13:12:40.876Z,99405.00
2023-04-09T13:15:08.056Z,99398.75
2023-04-09T13:17:35.257Z,99395.09
2023-04-09T13:20:02.102Z,99384.91
2023-04-09T13:22:29.206Z,99383.25
2023-04-09T13:24:56.294Z,99386.94
2023-04-09T13:27:25.296Z,99381.34
2023-04-09T13:29:52.280Z,99388.75
2023-04-09T13:32:21.332Z,99399.66
2023-04-09T13:34:48.179Z,99379.47
2023-04-09T13:37:15.712Z,99384.63
2023-04-09T13:39:44.707Z,99381.88
2023-04-09T13:42:14.021Z,99371.47
2023-04-09T13:44:44.512Z,99369.47
2023-04-09T13:47:13.136Z,99359.97
2023-04-09T13:49:41.259Z,99350.50
2023-04-09T13:52:08.839Z,99360.38
2023-04-09T13:54:36.469Z,99342.41
2023-04-09T13:57:04.259Z,99348.56
2023-04-09T13:59:31.308Z,99360.38
2023-04-09T14:01:58.383Z,99333.97
2023-04-09T14:04:25.482Z,99323.22
2023-04-09T14:06:52.401Z,99340.59
2023-04-09T14:09:23.140Z,99329.97
2023-04-09T14:11:51.164Z,99331.16
2023-04-09T14:14:18.511Z,99325.91
2023-04-09T14:16:46.842Z,99334.78
2023-04-09T14:19:13.590Z,99329.97
2023-04-09T14:21:41.262Z,99327.41
2023-04-09T14:24:08.167Z,99313.16
2023-04-09T14:26:35.274Z,99319.03
2023-04-09T14:29:02.317Z,99321.13
2023-04-09T14:31:29.304Z,99321.28
2023-04-09T14:33:56.752Z,99319.25
2023-04-09T14:36:23.529Z,99323.75
2023-04-09T14:38:50.379Z,99312.94
2023-04-09T14:41:17.443Z,99311.13
2023-04-09T14:43:44.268Z,99308.97
2023-04-09T14:46:14.074Z,99313.78
2023-04-09T14:48:41.156Z,99313.84
2023-04-09T14:51:10.824Z,99319.50
2023-04-09T14:53:38.221Z,99316.13
2023-04-09T14:56:05.642Z,99314.34
2023-04-09T14:58:32.453Z,99319.03
2023-04-09T15:00:59.296Z,99307.22
2023-04-09T15:03:26.333Z,99306.56
2023-04-09T15:05:53.469Z,99317.59
2023-04-09T15:08:20.469Z,99297.31
2023-04-09T15:10:47.298Z,99314.41
2023-04-09T15:13:16.157Z,99310.28
2023-04-09T15:15:44.876Z,99305.44
2023-04-09T15:18:12.845Z,99293.13
2023-04-09T15:20:40.842Z,99297.09
2023-04-09T15:23:07.923Z,99282.44
2023-04-09T15:25:34.814Z,99291.31
2023-04-09T15:28:03.553Z,99292.91
2023-04-09T15:30:30.776Z,99284.13
2023-04-09T15:32:58.283Z,99284.00
2023-04-09T15:35:28.992Z,99275.66
2023-04-09T15:37:57.536Z,99279.06
2023-04-09T15:40:25.306Z,99275.16
2023-04-09T15:42:52.280Z,99281.28
2023-04-09T15:45:19.239Z,99278.41
2023-04-09T15:47:46.874Z,99281.28
2023-04-09T15:50:14.470Z,99272.13
2023-04-09T15:52:41.616Z,99276.63
2023-04-09T15:55:09.154Z,99283.72
2023-04-09T15:57:36.327Z,99278.72
2023-04-09T16:00:07.087Z,99280.97
2023-04-09T16:02:34.315Z,99280.31
2023-04-09T16:05:02.162Z,99278.88
2023-04-09T16:11:58.519Z,99268.75
2023-04-09T16:14:25.519Z,99277.09
2023-04-09T16:16:53.753Z,99273.03
2023-04-09T16:19:21.358Z,99260.84
2023-04-09T16:21:49.013Z,99277.56
2023-04-09T16:24:16.001Z,99274.31
2023-04-09T16:26:44.888Z,99265.47
2023-04-09T16:29:12.730Z,99274.13
2023-04-09T16:31:43.169Z,99276.38
2023-04-09T16:34:10.227Z,99269.94
2023-04-09T16:36:37.108Z,99277.00
2023-04-09T16:39:05.156Z,99271.84
2023-04-09T16:41:34.345Z,99272.63
2023-04-09T16:44:03.190Z,99272.13
2023-04-09T16:46:30.229Z,99280.66
2023-04-09T16:48:57.044Z,99275.09
2023-04-09T16:51:23.872Z,99271.09
2023-04-09T16:53:50.639Z,99272.72
2023-04-09T16:56:17.500Z,99275.94
2023-04-09T16:58:45.887Z,99271.72
2023-04-09T17:01:12.750Z,99268.00
2023-04-09T17:03:39.662Z,99255.47
2023-04-09T17:06:06.755Z,99270.56
2023-04-09T17:08:35.259Z,99271.47
2023-04-09T17:11:02.373Z,99272.75
2023-04-09T17:13:35.731Z,99264.81
2023-04-09T17:16:03.868Z,99265.44
2023-04-09T17:18:30.646Z,99262.41
2023-04-09T17:20:57.544Z,99262.72
2023-04-09T17:23:24.392Z,99278.44
2023-04-09T17:25:51.488Z,99274.72
2023-04-09T17:28:19.081Z,99270.38
2023-04-09T17:30:46.188Z,99282.22
2023-04-09T17:33:13.278Z,99282.34
2023-04-09T17:35:42.289Z,99279.59
2023-04-09T17:38:09.194Z,99287.75
2023-04-09T17:40:36.016Z,99294.31
2023-04-09T17:43:02.766Z,99289.16
2023-04-09T17:45:29.561Z,99297.97
2023-04-09T17:47:57.000Z,99290.69
2023-04-09T17:50:24.802Z,99296.78
2023-04-09T17:52:51.941Z,99308.91
2023-04-09T17:55:19.342Z,99306.50
2023-04-09T17:57:46.270Z,99308.25
2023-04-09T18:00:14.223Z,99312.69
2023-04-09T18:02:41.933Z,99317.44
2023-04-09T18:05:09.841Z,99318.88
2023-04-09T18:07:36.757Z,99318.50
2023-04-09T18:10:04.745Z,99331.22
2023-04-09T18:12:32.228Z,99323.13
2023-04-09T18:14:59.013Z,99322.31
2023-04-09T18:17:26.370Z,99323.75
2023-04-09T18:19:58.272Z,99323.97
2023-04-09T18:22:26.776Z,99324.16
2023-04-09T18:24:54.176Z,99329.19
2023-04-09T18:27:21.559Z,99335.66
2023-04-09T18:29:51.188Z,99327.56
2023-04-09T18:32:19.620Z,99328.38
2023-04-09T18:34:47.659Z,99328.31
2023-04-09T18:37:15.608Z,99337.25
2023-04-09T18:39:42.573Z,99332.50
2023-04-09T18:42:09.752Z,99323.22
2023-04-09T18:44:37.453Z,99323.91
2023-04-09T18:47:09.619Z,99328.31
2023-04-09T18:49:36.911Z,99334.44
2023-04-09T18:52:09.111Z,99338.13
2023-04-09T18:54:37.170Z,99339.00
2023-04-09T18:57:04.467Z,99346.63
2023-04-09T18:59:33.471Z,99350.00
2023-04-09T19:02:03.574Z,99352.28
2023-04-09T19:04:36.486Z,99358.63
2023-04-09T19:07:03.777Z,99363.94
2023-04-09T19:09:31.939Z,99364.91
2023-04-09T19:11:59.042Z,99361.81
2023-04-09T19:14:26.070Z,99361.00
2023-04-09T19:16:53.094Z,99359.22
2023-04-09T19:19:20.141Z,99364.59
2023-04-09T19:21:47.106Z,99362.44
2023-04-09T19:24:14.009Z,99367.69
2023-04-09T19:26:40.983Z,99369.38
2023-04-09T19:29:08.129Z,99367.78
2023-04-09T19:31:35.212Z,99370.53
2023-04-09T19:34:02.136Z,99367.38
2023-04-09T19:36:31.191Z,99363.06
2023-04-09T19:38:58.110Z,99360.31
2023-04-09T19:41:24.917Z,99359.94
2023-04-09T19:43:51.770Z,99356.75
2023-04-09T19:46:18.671Z,99357.38
2023-04-09T19:48:48.117Z,99367.97
2023-04-09T19:51:19.929Z,99364.00
2023-04-09T19:53:47.815Z,99365.13
2023-04-09T19:56:15.630Z,99369.81
2023-04-09T19:58:43.856Z,99374.47
2023-04-09T20:01:13.105Z,99362.31
2023-04-09T20:03:40.226Z,99368.56
2023-04-09T20:06:09.509Z,99373.41
2023-04-09T20:08:38.438Z,99377.19
2023-04-09T20:11:05.818Z,99380.78
2023-04-09T20:13:35.587Z,99380.03
2023-04-09T20:16:02.392Z,99376.50
2023-04-09T20:18:29.303Z,99380.63
2023-04-09T20:20:56.128Z,99387.34
2023-04-09T20:23:23.014Z,99386.78
2023-04-09T20:25:55.193Z,99383.00
2023-04-09T20:28:23.038Z,99381.88
2023-04-09T20:30:50.474Z,99383.28
2023-04-09T20:33:18.518Z,99373.03
2023-04-09T20:35:45.821Z,99372.47
2023-04-09T20:38:12.830Z,99374.63
2023-04-09T20:40:39.698Z,99374.91
2023-04-09T20:43:06.569Z,99375.50
2023-04-09T20:45:33.527Z,99379.59
2023-04-09T20:48:01.743Z,99372.06
2023-04-09T20:50:29.915Z,99368.88
2023-04-09T20:52:58.458Z,99368.88
2023-04-09T20:55:25.867Z,99366.97
2023-04-09T20:57:58.197Z,99367.25
2023-04-09T21:00:25.117Z,99367.28
2023-04-09T21:02:51.923Z,99363.72
2023-04-09T21:05:23.469Z,99359.38
2023-04-09T21:07:54.459Z,99358.56
2023-04-09T21:10:21.852Z,99352.66
2023-04-09T21:12:48.847Z,99358.91
2023-04-09T21:15:16.240Z,99355.94
2023-04-09T21:17:43.120Z,99354.84
2023-04-09T21:20:10.839Z,99353.00
2023-04-09T21:22:37.808Z,99353.28
2023-04-09T21:25:05.258Z,99348.97
2023-04-09T21:27:32.107Z,99347.34
2023-04-09T21:30:00.326Z,99344.38
2023-04-09T21:32:27.979Z,99343.28
2023-04-09T21:34:55.284Z,99356.00
2023-04-09T21:37:22.587Z,99347.34
2023-04-09T21:39:49.660Z,99356.03
2023-04-09T21:42:16.798Z,99350.88
2023-04-09T21:44:43.912Z,99347.09
2023-04-09T21:47:12.117Z,99345.47
2023-04-09T21:49:42.729Z,99341.44
2023-04-09T21:52:14.746Z,99336.03
2023-04-09T21:54:43.581Z,99344.41
2023-04-09T21:57:11.179Z,99341.69
2023-04-09T21:59:38.408Z,99353.88
2023-04-09T22:02:05.644Z,99338.44
2023-04-09T22:04:34.869Z,99351.97
2023-04-09T22:07:03.181Z,99343.59
2023-04-09T22:09:30.741Z,99339.81
2023-04-09T22:11:58.625Z,99334.94
2023-04-09T22:14:32.552Z,99334.09
2023-04-09T22:17:01.566Z,99332.22
2023-04-09T22:19:31.421Z,99330.59
2023-04-09T22:21:58.898Z,99337.09
2023-04-09T22:24:30.122Z,99330.31
2023-04-09T22:26:58.856Z,99332.78
2023-04-09T22:29:27.675Z,99330.31
2023-04-09T22:31:58.632Z,99341.44
2023-04-09T22:34:27.164Z,99339.53
2023-04-09T22:36:54.306Z,99328.44
2023-04-09T22:39:21.632Z,99333.03
2023-04-09T22:41:48.705Z,99336.28
2023-04-09T22:44:15.430Z,99329.53
2023-04-09T22:46:42.496Z,99329.78
2023-04-09T22:49:09.498Z,99336.03
2023-04-09T22:51:36.458Z,99333.31
2023-04-09T22:54:03.747Z,99335.47
2023-04-09T22:56:32.076Z,99342.22
2023-04-09T22:58:59.293Z,99342.22
2023-04-09T23:01:27.164Z,99340.88
2023-04-09T23:03:55.976Z,99334.66
2023-04-09T23:06:25.066Z,99344.94
2023-04-09T23:08:52.269Z,99344.41
2023-04-09T23:11:19.199Z,99346.31
2023-04-09T23:13:46.069Z,99342.50
2023-04-09T23:16:13.958Z,99342.75
2023-04-09T23:18:40.990Z,99346.53
2023-04-09T23:21:09.373Z,99350.56
2023-04-09T23:23:38.089Z,99345.16
2023-04-09T23:26:05.855Z,99344.63
2023-04-09T23:28:32.957Z,99347.88
2023-04-09T23:30:59.862Z,99338.69
2023-04-09T23:33:27.909Z,99347.84
2023-04-09T23:35:55.195Z,99346.75
2023-04-09T23:38:22.573Z,99341.91
2023-04-09T23:40:49.838Z,99335.44
2023-04-09T23:43:16.805Z,99339.19
2023-04-09T23:45:44.546Z,99335.97
2023-04-09T23:48:12.768Z,99341.88
2023-04-09T23:50:41.525Z,99334.88
2023-04-09T23:53:09.078Z,99328.66
2023-04-09T23:55:40.958Z,99321.34
2023-04-09T23:58:10.608Z,99324.59
